Time;durP1;ratioP1;P1;durP2;ratioP2;P2;SDS_P1;SDS_P2;PMS_P1;PMS_P2;Temp;Humidity;BMP_temperature;BMP_pressure;BME280_temperature;BME280_humidity;BME280_pressure;Samples;Min_cycle;Max_cycle;Signal;HPM_P1;HPM_P2
2023/07/30 00:00:54;;;;;;;;;;;;;;;18.52;68.31;100055.92;104664;1301;71431;-87
2023/07/30 00:04:20;;;;;;;;;;;;;;;18.54;68.51;100053.03;104355;1299;60799;-87
2023/07/30 00:07:58;;;;;;;;;;;;;;;18.54;68.58;100053.88;104404;1300;64118;-88
2023/07/30 00:11:18;;;;;;;;;;;;;;;18.56;68.46;100061.83;104407;1301;74098;-88
2023/07/30 00:14:45;;;;;;;;;;;;;;;18.59;68.57;100068.65;104398;1299;68358;-88
2023/07/30 00:18:11;;;;;;;;;;;;;;;18.62;68.69;100070.41;104392;1303;72677;-86
2023/07/30 00:21:48;;;;;;;;;;;;;;;;;;;;;
2023/07/30 00:25:14;;;;;;;;;;;;;;;;;;;;;
2023/07/30 00:28:34;;;;;;;;;;;;;;;18.70;68.89;100078.64;103420;1312;74337;-87
2023/07/30 00:32:07;;;;;;;;;;;;;;;;;;;;;
2023/07/30 00:35:27;;;;;;;;;;;;;;;18.75;69.03;100079.58;103886;1306;71389;-87
2023/07/30 00:38:56;;;;;;;;;;;;;;;18.76;69.01;100084.41;103942;1309;62242;-86
2023/07/30 00:42:20;;;;;;;;;;;;;;;18.78;69.18;100084.98;103457;1312;60752;-86
2023/07/30 00:45:49;;;;;;;;;;;;;;;18.81;69.00;100082.02;103482;1309;74295;-86
2023/07/30 00:49:16;;;;;;;;;;;;;;;18.84;69.13;100075.88;103507;1311;69660;-86
2023/07/30 00:52:53;;;;;;;;;;;;;;;;;;;;;
2023/07/30 00:56:09;;;;;;;;;;;;;;;18.89;69.30;100080.67;102846;1317;62072;-86
2023/07/30 00:59:35;;;;;;;;;;;;;;;18.90;69.38;100080.30;103679;1308;62802;-86
2023/07/30 01:03:13;;;;;;;;;;;;;;;;;;;;;
2023/07/30 01:06:28;;;;;;;;;;;;;;;18.92;69.26;100083.46;104172;1303;69963;-86
2023/07/30 01:09:55;;;;;;;;;;;;;;;18.93;69.41;100087.45;104163;1303;71179;-86
2023/07/30 01:13:32;;;;;;;;;;;;;;;;;;;;;
2023/07/30 01:16:58;;;;;;;;;;;;;;;;;;;;;
2023/07/30 01:20:14;;;;;;;;;;;;;;;18.92;69.49;100086.79;104560;1301;74016;-86
2023/07/30 01:23:49;;;;;;;;;;;;;;;18.93;69.62;100088.64;104605;1297;67295;-86
2023/07/30 01:27:16;;;;;;;;;;;;;;;18.96;69.56;100096.86;96871;1304;10002427;-86
2023/07/30 01:30:42;;;;;;;;;;;;;;;18.98;69.56;100095.67;104509;1298;62012;-86
2023/07/30 01:34:21;;;;;;;;;;;;;;;;;;;;;
2023/07/30 01:37:35;;;;;;;;;;;;;;;18.95;69.64;100097.26;104166;1305;67158;-86
2023/07/30 01:41:01;;;;;;;;;;;;;;;18.95;69.84;100100.02;104106;1304;73014;-86
2023/07/30 01:44:28;;;;;;;;;;;;;;;18.96;69.83;100099.45;104156;1308;61925;-86
2023/07/30 01:47:54;;;;;;;;;;;;;;;18.96;69.83;100105.95;104180;1305;59732;-86
2023/07/30 01:51:21;;;;;;;;;;;;;;;18.95;69.82;100112.41;104087;1308;74408;-86
2023/07/30 01:55:00;;;;;;;;;;;;;;;;;;;;;
2023/07/30 01:58:17;;;;;;;;;;;;;;;18.95;69.99;100108.11;104127;1306;71387;-86
2023/07/30 02:01:56;;;;;;;;;;;;;;;;;;;;;
2023/07/30 02:05:09;;;;;;;;;;;;;;;18.90;70.04;100104.16;104488;1299;61969;-86
2023/07/30 02:08:35;;;;;;;;;;;;;;;18.88;69.88;100100.98;104218;1306;73626;-86
2023/07/30 02:12:02;;;;;;;;;;;;;;;18.90;69.93;100098.10;104659;1299;69798;-86
2023/07/30 02:15:28;;;;;;;;;;;;;;;18.88;69.91;100094.17;104207;1303;72474;-86
2023/07/30 02:18:58;;;;;;;;;;;;;;;18.87;70.10;100094.43;104142;1308;62040;-86
2023/07/30 02:22:49;;;;;;;;;;;;;;;;;;;;;
2023/07/30 02:26:06;;;;;;;;;;;;;;;18.81;70.05;100087.43;104150;1309;73995;-86
2023/07/30 02:29:42;;;;;;;;;;;;;;;;;;;;;
2023/07/30 02:33:12;;;;;;;;;;;;;;;;;;;;;
2023/07/30 02:36:25;;;;;;;;;;;;;;;18.76;70.28;100088.23;104071;1303;62097;-87
2023/07/30 02:40:09;;;;;;;;;;;;;;;;;;;;;
2023/07/30 02:43:35;;;;;;;;;;;;;;;;;;;;;
2023/07/30 02:46:51;;;;;;;;;;;;;;;18.70;70.13;100098.59;103436;1315;67579;-87
2023/07/30 02:50:18;;;;;;;;;;;;;;;18.68;70.12;100105.48;103418;1315;71486;-85
2023/07/30 02:53:46;;;;;;;;;;;;;;;18.66;70.18;100107.88;103530;1312;60911;-87
2023/07/30 02:57:13;;;;;;;;;;;;;;;18.61;70.27;100106.40;103434;1312;63969;-87
2023/07/30 03:00:37;;;;;;;;;;;;;;;18.62;70.23;100101.67;103489;1314;75445;-86
2023/07/30 03:04:03;;;;;;;;;;;;;;;18.62;70.27;100107.80;103523;1314;68963;-86
2023/07/30 03:07:30;;;;;;;;;;;;;;;18.61;70.31;100109.05;103033;1318;71294;-85
2023/07/30 03:10:37;;;;;;;;;;;;;;;18.60;70.24;100106.45;103078;1315;60231;-87
2023/07/30 03:14:04;;;;;;;;;;;;;;;18.59;70.36;100109.63;103082;1316;60402;-86
2023/07/30 03:17:30;;;;;;;;;;;;;;;18.59;70.30;100116.46;103087;1318;74468;-86
2023/07/30 03:20:57;;;;;;;;;;;;;;;18.56;70.42;100117.48;103687;1309;69389;-85
2023/07/30 03:24:23;;;;;;;;;;;;;;;18.54;70.45;100113.07;104028;1303;71267;-86
2023/07/30 03:28:02;;;;;;;;;;;;;;;;;;;;;
2023/07/30 03:31:16;;;;;;;;;;;;;;;18.50;70.53;100122.86;104326;1303;61978;-86
2023/07/30 03:34:42;;;;;;;;;;;;;;;18.51;70.55;100126.00;104485;1299;74737;-86
2023/07/30 03:38:09;;;;;;;;;;;;;;;18.49;70.67;100130.42;104513;1300;67237;-86
2023/07/30 03:41:35;;;;;;;;;;;;;;;18.51;70.59;100134.20;104474;1300;71417;-86
2023/07/30 03:45:02;;;;;;;;;;;;;;;18.51;70.59;100136.45;104698;1296;62103;-86
2023/07/30 03:48:28;;;;;;;;;;;;;;;18.51;70.65;100137.31;104317;1303;62213;-86
2023/07/30 03:51:55;;;;;;;;;;;;;;;18.51;70.78;100138.70;104301;1303;74152;-87
2023/07/30 03:55:32;;;;;;;;;;;;;;;;;;;;;
2023/07/30 03:58:48;;;;;;;;;;;;;;;18.44;70.63;100134.55;104494;1302;73981;-86
2023/07/30 04:02:15;;;;;;;;;;;;;;;18.44;70.68;100134.73;104694;1300;62120;-86
2023/07/30 04:05:41;;;;;;;;;;;;;;;18.45;70.76;100139.38;104665;1299;61979;-86
2023/07/30 04:09:08;;;;;;;;;;;;;;;18.49;70.78;100147.93;104597;1300;73602;-86
2023/07/30 04:12:31;;;;;;;;;;;;;;;18.51;70.86;100154.04;104595;1299;71266;-86
2023/07/30 04:15:58;;;;;;;;;;;;;;;18.50;70.71;100153.26;104590;1299;71203;-88
2023/07/30 04:19:35;;;;;;;;;;;;;;;;;;;;;
2023/07/30 04:22:51;;;;;;;;;;;;;;;18.53;70.91;100164.27;104599;1299;60315;-86
2023/07/30 04:26:20;;;;;;;;;;;;;;;18.54;70.85;100164.73;105104;1291;74480;-86
2023/07/30 04:29:46;;;;;;;;;;;;;;;18.59;71.06;100162.55;105140;1291;68841;-87
2023/07/30 04:33:14;;;;;;;;;;;;;;;18.66;70.95;100163.03;105176;1292;72509;-87
2023/07/30 04:36:42;;;;;;;;;;;;;;;18.68;70.97;100166.60;105167;1291;62047;-87
2023/07/30 04:40:16;;;;;;;;;;;;;;;;;;;;;
2023/07/30 04:43:42;;;;;;;;;;;;;;;;;;;;;
2023/07/30 04:46:58;;;;;;;;;;;;;;;18.88;71.17;100175.78;105159;1292;71149;-86
2023/07/30 04:50:28;;;;;;;;;;;;;;;18.95;71.08;100179.85;105143;1292;70082;-87
2023/07/30 04:53:51;;;;;;;;;;;;;;;19.07;71.07;100182.14;105082;1291;62138;-87
2023/07/30 04:57:32;;;;;;;;;;;;;;;;;;;;;
2023/07/30 05:00:54;;;;;;;;;;;;;;;;;;;;;
2023/07/30 05:04:22;;;;;;;;;;;;;;;;;;;;;
2023/07/30 05:07:37;;;;;;;;;;;;;;;19.45;71.04;100191.02;105203;1291;72585;-87
2023/07/30 05:11:03;;;;;;;;;;;;;;;19.55;71.08;100190.34;105167;1291;63430;-86
2023/07/30 05:14:30;;;;;;;;;;;;;;;19.63;70.99;100190.88;105121;1291;62034;-86
2023/07/30 05:17:56;;;;;;;;;;;;;;;19.75;71.18;100194.03;105087;1291;74013;-86
2023/07/30 05:21:22;;;;;;;;;;;;;;;19.86;70.87;100190.70;105083;1291;67206;-86
2023/07/30 05:24:49;;;;;;;;;;;;;;;20.02;71.02;100194.98;104945;1293;71314;-86
2023/07/30 05:28:15;;;;;;;;;;;;;;;20.18;70.97;100193.96;105030;1295;61906;-86
2023/07/30 05:31:42;;;;;;;;;;;;;;;20.24;70.82;100199.73;105021;1295;61981;-87
2023/07/30 05:35:21;;;;;;;;;;;;;;;;;;;;;
2023/07/30 05:38:47;;;;;;;;;;;;;;;;;;;;;
2023/07/30 05:42:26;;;;;;;;;;;;;;;;;;;;;
2023/07/30 05:45:53;;;;;;;;;;;;;;;;;;;;;
2023/07/30 05:49:19;;;;;;;;;;;;;;;;;;;;;
2023/07/30 05:52:45;;;;;;;;;;;;;;;20.19;70.62;100208.09;104571;1300;75508;-87
2023/07/30 05:56:03;;;;;;;;;;;;;;;20.13;70.65;100214.55;104409;1300;71311;-87
2023/07/30 05:59:41;;;;;;;;;;;;;;;;;;;;;
2023/07/30 06:03:02;;;;;;;;;;;;;;;20.07;70.80;100213.74;104034;1306;59928;-87
2023/07/30 06:06:40;;;;;;;;;;;;;;;;;;;;;
2023/07/30 06:10:02;;;;;;;;;;;;;;;;;;;;;
2023/07/30 06:13:31;;;;;;;;;;;;;;;;;;;;;
2023/07/30 06:16:58;;;;;;;;;;;;;;;;;;;;;
2023/07/30 06:20:21;;;;;;;;;;;;;;;;;;;;;
2023/07/30 06:23:44;;;;;;;;;;;;;;;20.00;70.74;100209.24;103073;1315;60610;-88
2023/07/30 06:27:29;;;;;;;;;;;;;;;;;;;;;
2023/07/30 06:30:38;;;;;;;;;;;;;;;;;;;;;
2023/07/30 06:34:03;;;;;;;;;;;;;;;;;;;;;
2023/07/30 06:37:32;;;;;;;;;;;;;;;;;;;;;
2023/07/30 06:41:03;;;;;;;;;;;;;;;;;;;;;
2023/07/30 06:44:30;;;;;;;;;;;;;;;;;;;;;
2023/07/30 06:47:47;;;;;;;;;;;;;;;20.85;71.02;100199.27;102685;1324;70079;-87
2023/07/30 06:51:13;;;;;;;;;;;;;;;21.16;70.47;100201.77;102654;1321;71703;-87
2023/07/30 06:54:35;;;;;;;;;;;;;;;21.32;70.51;100200.36;102641;1320;62333;-87
2023/07/30 06:58:09;;;;;;;;;;;;;;;;;;;;;
2023/07/30 07:01:36;;;;;;;;;;;;;;;;;;;;;
2023/07/30 07:04:52;;;;;;;;;;;;;;;22.42;70.08;100204.92;103800;1307;68072;-87
2023/07/30 07:08:27;;;;;;;;;;;;;;;;;;;;;
2023/07/30 07:11:54;;;;;;;;;;;;;;;;;;;;;
2023/07/30 07:15:20;;;;;;;;;;;;;;;;;;;;;
2023/07/30 07:18:54;;;;;;;;;;;;;;;;;;;;;
2023/07/30 07:22:19;;;;;;;;;;;;;;;;;;;;;
2023/07/30 07:29:25;;;;;;;;;;;;;;;;;;;;;
2023/07/30 07:32:50;;;;;;;;;;;;;;;;;;;;;
2023/07/30 07:39:30;;;;;;;;;;;;;;;23.79;69.17;100227.42;103350;1312;71308;-88
2023/07/30 07:42:58;;;;;;;;;;;;;;;24.89;69.18;100233.05;103280;1312;62427;-86
2023/07/30 07:46:34;;;;;;;;;;;;;;;;;;;;;
2023/07/30 07:49:41;;;;;;;;;;;;;;;26.28;67.81;100227.40;103241;1312;74143;-86
2023/07/30 08:00:26;;;;;;;;;;;;;;;;;;;;;
2023/07/30 13:07:50;;;;;;;;;;;;;;;25.49;54.38;100096.10;85903;1288;62528;-86
2023/07/30 13:11:29;;;;;;;;;;;;;;;;;;;;;
2023/07/30 13:29:26;;;;;;;;;;;;;;;;;;;;;
2023/07/30 13:32:53;;;;;;;;;;;;;;;;;;;;;
2023/07/30 13:50:30;;;;;;;;;;;;;;;;;;;;;
2023/07/30 18:27:48;;;;;;;;;;;;;;;22.74;50.73;100179.23;100240;1294;68126;-86
2023/07/30 18:30:57;;;;;;;;;;;;;;;22.68;50.77;100177.23;105019;1293;71211;-85
2023/07/30 18:34:03;;;;;;;;;;;;;;;22.62;50.74;100174.14;105491;1297;60882;-85
2023/07/30 18:37:11;;;;;;;;;;;;;;;22.57;50.92;100176.81;104959;1293;62029;-85
2023/07/30 18:39:58;;;;;;;;;;;;;;;22.55;51.00;100186.98;104927;1294;75851;-85
2023/07/30 18:42:49;;;;;;;;;;;;;;;22.49;51.07;100190.76;104904;1297;67341;-85
2023/07/30 18:45:43;;;;;;;;;;;;;;;22.44;51.14;100189.55;104815;1294;71340;-85
2023/07/30 18:48:35;;;;;;;;;;;;;;;22.36;51.02;100193.61;104970;1294;61343;-85
2023/07/30 18:51:57;;;;;;;;;;;;;;;22.31;51.12;100194.86;105034;1291;612364;-85
2023/07/30 18:54:48;;;;;;;;;;;;;;;22.21;51.16;100199.63;105247;1291;59229;-85
2023/07/30 18:57:55;;;;;;;;;;;;;;;22.13;51.20;100203.55;105028;1291;59410;-86
2023/07/30 19:00:42;;;;;;;;;;;;;;;22.03;51.21;100203.16;105049;1293;70759;-85
2023/07/30 19:03:29;;;;;;;;;;;;;;;21.96;51.25;100208.27;104375;1292;68514;-85
2023/07/30 19:06:15;;;;;;;;;;;;;;;21.87;51.31;100211.81;102891;1289;2406626;-85
2023/07/30 19:09:02;;;;;;;;;;;;;;;21.83;51.41;100222.00;104512;1290;58852;-85
2023/07/30 19:11:48;;;;;;;;;;;;;;;21.77;51.25;100224.11;104684;1290;58849;-85
2023/07/30 19:14:43;;;;;;;;;;;;;;;21.73;51.35;100223.20;104626;1291;71909;-85
2023/07/30 19:17:50;;;;;;;;;;;;;;;21.68;51.35;100217.88;104756;1289;68349;-86
2023/07/30 19:20:56;;;;;;;;;;;;;;;21.63;51.39;100220.53;104778;1289;72304;-86
2023/07/30 19:24:22;;;;;;;;;;;;;;;21.56;51.37;100229.61;104875;1289;59688;-87
2023/07/30 19:27:48;;;;;;;;;;;;;;;21.49;51.57;100230.07;104783;1289;59848;-85
2023/07/30 19:30:54;;;;;;;;;;;;;;;21.44;51.51;100231.59;104773;1289;70927;-86
2023/07/30 19:34:27;;;;;;;;;;;;;;;21.37;51.54;100231.55;105207;1288;66313;-86
2023/07/30 19:37:53;;;;;;;;;;;;;;;21.32;51.58;100232.11;105445;1288;72494;-86
2023/07/30 19:41:19;;;;;;;;;;;;;;;21.25;51.65;100236.63;105080;1286;59588;-87
2023/07/30 19:44:29;;;;;;;;;;;;;;;21.22;51.61;100238.92;105079;1286;59110;-86
2023/07/30 19:47:55;;;;;;;;;;;;;;;21.20;51.63;100238.38;104946;1288;71968;-86
2023/07/30 19:51:16;;;;;;;;;;;;;;;21.15;51.79;100236.73;104988;1289;68364;-86
2023/07/30 19:54:42;;;;;;;;;;;;;;;21.11;51.80;100241.86;105082;1288;73380;-87
2023/07/30 19:58:07;;;;;;;;;;;;;;;21.12;51.84;100245.13;105357;1287;59632;-86
2023/07/30 20:01:15;;;;;;;;;;;;;;;21.10;51.87;100243.56;105020;1289;61701;-86
2023/07/30 20:04:24;;;;;;;;;;;;;;;21.08;51.88;100243.16;104987;1289;72669;-86
2023/07/30 20:07:50;;;;;;;;;;;;;;;21.07;51.93;100241.98;105021;1286;70308;-86
2023/07/30 20:11:16;;;;;;;;;;;;;;;21.08;52.05;100244.39;104959;1288;72662;-86
2023/07/30 20:14:42;;;;;;;;;;;;;;;21.07;52.20;100254.27;104877;1288;59534;-86
2023/07/30 20:17:52;;;;;;;;;;;;;;;21.08;52.16;100256.14;105204;1286;59607;-87
2023/07/30 20:20:59;;;;;;;;;;;;;;;21.06;52.16;100254.15;105528;1290;72937;-87
2023/07/30 20:24:27;;;;;;;;;;;;;;;21.03;52.20;100253.79;105210;1286;67230;-86
2023/07/30 20:27:51;;;;;;;;;;;;;;;20.99;52.44;100257.73;104923;1295;71383;-86
2023/07/30 20:31:18;;;;;;;;;;;;;;;20.98;52.48;100259.05;104834;1292;59801;-87
2023/07/30 20:34:43;;;;;;;;;;;;;;;20.95;52.34;100260.46;104785;1291;60875;-86
2023/07/30 20:38:10;;;;;;;;;;;;;;;20.95;52.45;100265.21;104853;1291;71794;-86
2023/07/30 20:41:35;;;;;;;;;;;;;;;20.93;52.44;100263.06;104848;1289;68522;-87
2023/07/30 20:45:01;;;;;;;;;;;;;;;20.92;52.43;100263.83;104833;1289;71592;-87
2023/07/30 20:48:28;;;;;;;;;;;;;;;20.92;52.54;100269.08;104818;1289;59462;-87
2023/07/30 20:51:54;;;;;;;;;;;;;;;20.91;52.61;100269.70;105286;1289;60293;-88
2023/07/30 20:55:20;;;;;;;;;;;;;;;20.89;52.71;100279.98;104893;1289;72766;-88
2023/07/30 20:58:46;;;;;;;;;;;;;;;20.89;52.71;100285.54;105702;1286;67759;-88
2023/07/30 21:02:12;;;;;;;;;;;;;;;20.87;52.73;100285.86;105455;1285;71449;-87
2023/07/30 21:05:34;;;;;;;;;;;;;;;20.87;52.67;100299.23;105208;1285;59680;-87
2023/07/30 21:09:00;;;;;;;;;;;;;;;20.86;53.03;100302.95;105177;1285;63448;-87
2023/07/30 21:12:26;;;;;;;;;;;;;;;20.79;53.04;100317.06;105268;1286;74596;-88
2023/07/30 21:15:52;;;;;;;;;;;;;;;20.70;53.34;100327.77;105275;1288;72564;-88
2023/07/30 21:19:19;;;;;;;;;;;;;;;20.61;53.56;100333.80;105344;1285;71395;-88
2023/07/30 21:22:45;;;;;;;;;;;;;;;20.49;53.64;100332.95;105234;1288;59650;-88
2023/07/30 21:26:11;;;;;;;;;;;;;;;20.34;54.15;100333.36;105267;1285;59547;-88
2023/07/30 21:29:38;;;;;;;;;;;;;;;20.25;54.19;100333.91;105532;1284;72215;-88
2023/07/30 21:33:04;;;;;;;;;;;;;;;20.16;54.49;100346.33;105288;1284;68340;-88
2023/07/30 21:36:30;;;;;;;;;;;;;;;20.12;54.72;100349.42;105282;1286;71696;-88
2023/07/30 21:39:58;;;;;;;;;;;;;;;20.05;54.82;100349.98;105300;1284;59580;-87
2023/07/30 21:43:23;;;;;;;;;;;;;;;19.95;55.11;100350.06;105392;1284;59638;-87
2023/07/30 21:46:49;;;;;;;;;;;;;;;19.85;55.20;100352.58;105357;1287;74480;-87
2023/07/30 21:50:16;;;;;;;;;;;;;;;19.74;55.35;100354.24;105492;1288;68506;-87
2023/07/30 21:53:23;;;;;;;;;;;;;;;19.65;55.38;100351.98;105356;1285;71143;-87
2023/07/30 21:56:49;;;;;;;;;;;;;;;19.47;55.97;100352.83;105303;1286;62078;-87
2023/07/30 22:00:15;;;;;;;;;;;;;;;19.30;55.96;100354.85;105179;1286;59632;-87
2023/07/30 22:03:41;;;;;;;;;;;;;;;19.17;56.17;100348.61;106552;1285;71701;-87
2023/07/30 22:06:47;;;;;;;;;;;;;;;19.10;56.55;100344.80;105526;1285;67392;-88
2023/07/30 22:09:53;;;;;;;;;;;;;;;19.03;56.65;100340.50;105731;1283;73972;-87
2023/07/30 22:13:01;;;;;;;;;;;;;;;19.01;56.89;100333.81;105603;1285;59551;-86
2023/07/30 22:16:16;;;;;;;;;;;;;;;18.94;56.92;100328.25;105845;1285;59266;-87
2023/07/30 22:19:41;;;;;;;;;;;;;;;18.89;57.23;100332.73;105709;1284;73494;-87
2023/07/30 22:23:07;;;;;;;;;;;;;;;18.86;57.37;100327.30;105556;1285;67235;-87
2023/07/30 22:26:14;;;;;;;;;;;;;;;18.89;57.50;100322.59;105597;1288;72638;-86
2023/07/30 22:29:40;;;;;;;;;;;;;;;18.86;57.55;100332.16;105682;1285;59646;-87
2023/07/30 22:32:46;;;;;;;;;;;;;;;18.84;57.78;100336.28;105718;1285;59538;-86
2023/07/30 22:36:12;;;;;;;;;;;;;;;18.82;57.91;100334.84;105524;1285;74085;-86
2023/07/30 22:39:38;;;;;;;;;;;;;;;18.83;58.04;100337.55;105624;1286;66321;-86
2023/07/30 22:43:04;;;;;;;;;;;;;;;18.84;58.19;100337.33;105490;1283;72284;-86
2023/07/30 22:46:27;;;;;;;;;;;;;;;18.87;58.37;100342.44;105587;1286;59633;-87
2023/07/30 22:49:53;;;;;;;;;;;;;;;18.86;58.47;100347.70;105510;1289;61105;-86
2023/07/30 22:53:19;;;;;;;;;;;;;;;18.81;58.65;100349.86;105569;1285;71850;-86
2023/07/30 22:56:45;;;;;;;;;;;;;;;18.79;58.57;100348.11;105590;1283;69732;-87
2023/07/30 23:00:11;;;;;;;;;;;;;;;18.77;58.74;100356.95;105419;1285;72537;-87
2023/07/30 23:03:37;;;;;;;;;;;;;;;18.76;59.03;100363.80;105270;1286;61503;-87
2023/07/30 23:07:03;;;;;;;;;;;;;;;18.69;59.15;100361.94;105285;1286;59260;-87
2023/07/30 23:10:30;;;;;;;;;;;;;;;18.66;59.26;100354.27;105348;1289;70793;-87
2023/07/30 23:13:56;;;;;;;;;;;;;;;18.63;59.47;100360.69;105260;1294;70085;-87
2023/07/30 23:17:02;;;;;;;;;;;;;;;18.60;59.42;100363.99;105538;1293;71388;-87
2023/07/30 23:20:08;;;;;;;;;;;;;;;18.61;59.65;100362.52;105316;1289;60636;-87
2023/07/30 23:23:34;;;;;;;;;;;;;;;18.58;59.78;100364.96;105022;1294;59717;-87
2023/07/30 23:27:00;;;;;;;;;;;;;;;18.53;59.86;100360.13;105074;1293;72928;-87
2023/07/30 23:30:27;;;;;;;;;;;;;;;18.55;59.90;100356.90;104951;1295;67298;-87
2023/07/30 23:33:53;;;;;;;;;;;;;;;18.52;60.08;100350.55;105003;1297;71166;-87
2023/07/30 23:37:19;;;;;;;;;;;;;;;18.51;60.13;100350.42;105196;1292;61040;-87
2023/07/30 23:40:45;;;;;;;;;;;;;;;18.51;60.24;100348.68;105249;1292;62846;-87
2023/07/30 23:43:55;;;;;;;;;;;;;;;18.52;60.38;100349.19;105454;1292;70822;-87
2023/07/30 23:47:21;;;;;;;;;;;;;;;18.51;60.45;100348.38;105505;1289;67102;-87
2023/07/30 23:50:47;;;;;;;;;;;;;;;18.50;60.50;100349.98;105476;1289;71584;-87
2023/07/30 23:54:14;;;;;;;;;;;;;;;18.48;60.51;100346.45;105669;1286;59188;-87
2023/07/30 23:57:40;;;;;;;;;;;;;;;18.44;60.67;100346.67;105835;1288;59664;-87
